Time;durP1;ratioP1;P1;durP2;ratioP2;P2;SDS_P1;SDS_P2;PMS_P1;PMS_P2;Temp;Humidity;BMP_temperature;BMP_pressure;BME280_temperature;BME280_humidity;BME280_pressure;Samples;Min_cycle;Max_cycle;Signal;HPM_P1;HPM_P2
2023/12/28 00:00:31;;;;;;;;;4.33;4.33;;;;;11.37;74.70;100848.16;4978134;28;45541;-84
2023/12/28 00:02:57;;;;;;;;;6.67;6.67;;;;;11.34;75.52;100846.53;4978363;28;45311;-82
2023/12/28 00:05:22;;;;;;;;;4.00;4.00;;;;;11.29;75.35;100845.03;4985989;28;45342;-81
2023/12/28 00:07:47;;;;;;;;;6.25;6.25;;;;;11.26;75.41;100847.88;4980187;28;45568;-85
2023/12/28 00:10:13;;;;;;;;;5.00;5.00;;;;;11.23;75.52;100848.91;4978761;28;46052;-86
2023/12/28 00:12:38;;;;;;;;;6.25;4.25;;;;;11.26;75.76;100845.22;4978549;28;45309;-83
2023/12/28 00:15:04;;;;;;;;;5.75;4.50;;;;;11.26;75.57;100862.06;4993701;28;45324;-83
2023/12/28 00:17:29;;;;;;;;;8.67;6.00;;;;;11.20;75.36;100849.94;4978597;28;45568;-83
2023/12/28 00:19:55;;;;;;;;;8.50;7.50;;;;;11.20;75.55;100844.63;4978246;28;46627;-83
2023/12/28 00:22:20;;;;;;;;;6.00;6.00;;;;;11.22;75.75;100856.03;4978803;28;48095;-81
2023/12/28 00:24:45;;;;;;;;;5.25;5.25;;;;;11.18;76.06;100854.47;4987040;28;45873;-83
2023/12/28 00:27:11;;;;;;;;;5.00;5.00;;;;;11.22;76.26;100849.88;4985347;28;45564;-83
2023/12/28 00:29:38;;;;;;;;;6.00;4.50;;;;;11.27;75.95;100863.78;4982382;28;50402;-88
2023/12/28 00:32:05;;;;;;;;;5.00;3.33;;;;;11.28;75.82;100864.63;4981393;28;45199;-87
2023/12/28 00:34:30;;;;;;;;;8.00;4.75;;;;;11.22;76.68;100856.03;4981082;28;45367;-82
2023/12/28 00:36:56;;;;;;;;;6.33;6.33;;;;;11.26;75.84;100851.41;4990369;28;45234;-84
2023/12/28 00:39:21;;;;;;;;;8.00;8.00;;;;;11.22;75.76;100842.75;4989113;28;49688;-87
2023/12/28 00:41:46;;;;;;;;;8.00;7.33;;;;;11.29;76.10;100864.53;4981517;28;45256;-83
2023/12/28 00:44:12;;;;;;;;;4.67;4.67;;;;;11.28;76.12;100860.16;4980309;28;45406;-81
2023/12/28 00:46:37;;;;;;;;;8.00;6.67;;;;;11.23;76.39;100852.44;4980091;28;45423;-83
2023/12/28 00:49:02;;;;;;;;;8.50;5.00;;;;;11.27;76.24;100861.13;4978568;28;46215;-81
2023/12/28 00:51:27;;;;;;;;;6.50;4.25;;;;;11.29;76.51;100855.69;4976373;28;63395;-83
2023/12/28 00:53:53;;;;;;;;;5.00;5.00;;;;;11.28;76.13;100860.16;4976828;28;45418;-81
2023/12/28 00:56:20;;;;;;;;;5.75;5.75;;;;;11.29;75.97;100850.38;4979671;28;45640;-80
2023/12/28 00:58:45;;;;;;;;;5.00;5.00;;;;;11.25;76.65;100847.03;4974811;28;47328;-80
2023/12/28 01:01:11;;;;;;;;;9.00;5.00;;;;;11.22;76.73;100840.06;4991379;28;54074;-82
2023/12/28 01:03:36;;;;;;;;;5.50;4.00;;;;;11.28;76.57;100856.66;4977935;28;45183;-82
2023/12/28 01:06:01;;;;;;;;;6.25;6.25;;;;;11.27;76.99;100849.59;4977738;27;45267;-80
2023/12/28 01:08:27;;;;;;;;;5.00;5.00;;;;;11.25;77.34;100840.84;4977604;28;45228;-81
2023/12/28 01:10:52;;;;;;;;;6.25;6.25;;;;;11.25;77.11;100844.38;4979045;28;50375;-82
2023/12/28 01:13:17;;;;;;;;;5.67;5.67;;;;;11.25;77.16;100851.50;4979071;28;45322;-82
2023/12/28 01:15:43;;;;;;;;;6.25;6.25;;;;;11.18;77.53;100841.16;4980328;28;45224;-84
2023/12/28 01:18:08;;;;;;;;;9.50;5.25;;;;;11.22;77.38;100852.53;4979298;28;45480;-83
2023/12/28 01:20:34;;;;;;;;;5.00;5.00;;;;;11.22;77.69;100853.38;4979210;28;45366;-80
2023/12/28 01:23:00;;;;;;;;;8.50;8.50;;;;;11.10;76.93;100838.06;4975863;28;45329;-81
2023/12/28 01:25:25;;;;;;;;;4.50;3.50;;;;;11.19;77.80;100860.66;4989012;28;45817;-80
2023/12/28 01:27:50;;;;;;;;;9.50;7.75;;;;;11.10;77.66;100843.41;4994201;28;65553;-81
2023/12/28 01:30:15;;;;;;;;;8.00;6.00;;;;;11.16;77.81;100859.03;4994437;28;54328;-80
2023/12/28 01:32:41;;;;;;;;;5.50;5.50;;;;;11.14;77.75;100857.41;4994662;28;45359;-80
2023/12/28 01:35:06;;;;;;;;;5.00;5.00;;;;;11.09;78.28;100859.47;4985713;28;45638;-85
2023/12/28 01:37:33;;;;;;;;;13.00;6.50;;;;;11.06;77.62;100844.50;4976966;28;45873;-83
2023/12/28 01:39:59;;;;;;;;;7.75;6.50;;;;;11.06;78.17;100846.28;4977246;28;45482;-83
2023/12/28 01:42:25;;;;;;;;;6.00;6.00;;;;;10.98;78.05;100841.41;4976683;28;45327;-83
2023/12/28 01:44:50;;;;;;;;;5.00;5.00;;;;;11.09;78.69;100870.97;4981184;28;45476;-82
2023/12/28 01:47:15;;;;;;;;;8.75;5.75;;;;;10.98;78.36;100857.38;4976866;28;62808;-80
2023/12/28 01:49:42;;;;;;;;;9.00;4.25;;;;;11.04;79.08;100870.34;4978399;28;45307;-86
2023/12/28 01:52:07;;;;;;;;;6.25;6.00;;;;;11.07;78.96;100883.50;4977392;28;45189;-84
2023/12/28 01:54:34;;;;;;;;;5.25;5.00;;;;;11.08;79.26;100884.34;4977671;28;45208;-83
2023/12/28 01:57:01;;;;;;;;;4.00;4.00;;;;;11.05;79.12;100885.34;4976313;28;46235;-87
2023/12/28 01:59:27;;;;;;;;;6.00;6.00;;;;;11.05;79.68;100882.69;4974725;28;45502;-85
2023/12/28 02:01:52;;;;;;;;;8.00;6.00;;;;;11.06;79.49;100892.41;4974535;28;45309;-83
2023/12/28 02:04:22;;;;;;;;;7.33;5.00;;;;;11.04;79.93;100896.94;4975295;28;45399;-82
2023/12/28 02:06:47;;;;;;;;;4.00;4.00;;;;;11.03;79.78;100892.56;4979537;28;45750;-87
2023/12/28 02:09:12;;;;;;;;;3.00;3.00;;;;;11.07;80.22;100899.47;4975855;28;55003;-84
2023/12/28 02:11:38;;;;;;;;;5.33;5.33;;;;;11.01;80.21;100891.78;4975098;28;57937;-89
2023/12/28 02:14:03;;;;;;;;;5.75;4.00;;;;;11.06;80.54;100891.53;4987121;28;45478;-81
2023/12/28 02:16:33;;;;;;;;;10.00;3.75;;;;;11.06;80.35;100899.53;4981846;28;45509;-88
2023/12/28 02:19:07;;;;;;;;;6.67;6.67;;;;;11.03;80.49;100886.38;4975798;28;45355;-89
2023/12/28 02:21:33;;;;;;;;;5.00;5.00;;;;;10.93;80.85;100896.66;4977615;28;45417;-87
2023/12/28 02:23:59;;;;;;;;;9.00;7.67;;;;;11.00;81.14;100908.69;4991061;28;45409;-89
2023/12/28 02:26:24;;;;;;;;;4.33;4.33;;;;;10.99;81.85;100899.00;4976586;28;63023;-84
2023/12/28 02:28:49;;;;;;;;;6.67;6.33;;;;;10.99;81.37;100896.34;4973581;28;49467;-82
2023/12/28 02:31:26;;;;;;;;;10.00;5.00;;;;;11.03;81.53;100905.88;4989220;28;45379;-83
2023/12/28 02:33:59;;;;;;;;;7.00;5.00;;;;;10.96;81.93;100901.84;4977034;28;45529;-82
2023/12/28 02:36:27;;;;;;;;;5.00;5.00;;;;;11.03;81.92;100900.56;4976086;28;45545;-82
2023/12/28 02:38:56;;;;;;;;;9.33;8.00;;;;;10.92;82.12;100886.94;4974444;28;45235;-81
2023/12/28 02:41:22;;;;;;;;;4.75;4.00;;;;;11.00;82.50;100905.19;4974235;28;45268;-82
2023/12/28 02:43:48;;;;;;;;;8.00;6.25;;;;;10.93;82.48;100886.00;4973580;28;45417;-81
2023/12/28 02:46:13;;;;;;;;;6.00;6.00;;;;;10.97;82.53;100890.25;4976287;28;45688;-81
2023/12/28 02:48:39;;;;;;;;;4.33;4.00;;;;;10.99;83.03;100896.34;4975930;28;50270;-80
2023/12/28 02:51:04;;;;;;;;;4.75;4.25;;;;;11.02;82.13;100901.50;4976479;28;45365;-83
2023/12/28 02:53:29;;;;;;;;;8.00;6.00;;;;;11.01;82.90;100898.91;4976883;28;45516;-84
2023/12/28 02:55:55;;;;;;;;;2.25;2.25;;;;;10.96;83.26;100885.00;4987288;28;67940;-83
2023/12/28 02:58:20;;;;;;;;;3.67;3.67;;;;;11.03;82.72;100895.22;4976210;28;45300;-83
2023/12/28 03:00:46;;;;;;;;;5.00;5.00;;;;;11.05;83.05;100900.47;4976130;28;45392;-81
2023/12/28 03:03:11;;;;;;;;;9.75;6.25;;;;;10.94;82.60;100885.09;4976550;28;45366;-84
2023/12/28 03:05:36;;;;;;;;;5.33;5.00;;;;;10.95;83.02;100881.50;4990904;28;54976;-82
2023/12/28 03:08:02;;;;;;;;;9.75;5.50;;;;;11.05;83.14;100896.00;4975403;28;65467;-85
2023/12/28 03:10:27;;;;;;;;;4.00;4.00;;;;;11.00;82.80;100887.41;4976910;28;45322;-81
2023/12/28 03:12:52;;;;;;;;;5.00;4.00;;;;;11.03;82.70;100897.88;4976290;28;45379;-81
2023/12/28 03:15:18;;;;;;;;;9.33;3.67;;;;;11.01;82.95;100877.63;4985168;28;64804;-82
2023/12/28 03:17:43;;;;;;;;;5.00;5.00;;;;;10.96;83.06;100885.88;4995858;28;45400;-84
2023/12/28 03:20:10;;;;;;;;;5.67;5.67;;;;;10.99;83.30;100896.34;4995691;28;45362;-83
2023/12/28 03:22:35;;;;;;;;;5.00;3.33;;;;;10.98;83.08;100881.31;4993295;27;45538;-84
2023/12/28 03:25:00;;;;;;;;;9.00;3.33;;;;;10.90;83.59;100864.88;4975622;28;58469;-83
2023/12/28 03:27:26;;;;;;;;;7.50;5.50;;;;;10.98;82.86;100902.59;4975971;28;45287;-83
2023/12/28 03:29:51;;;;;;;;;8.33;4.67;;;;;11.01;83.18;100905.09;4975532;28;51306;-85
2023/12/28 03:32:16;;;;;;;;;4.00;4.00;;;;;10.95;82.89;100893.94;4976376;28;45676;-83
2023/12/28 03:34:42;;;;;;;;;4.00;3.67;;;;;10.89;83.20;100881.78;4976153;28;45386;-81
2023/12/28 03:37:07;;;;;;;;;5.00;3.33;;;;;10.94;83.49;100895.75;4975219;28;67559;-79
2023/12/28 03:39:33;;;;;;;;;3.67;3.67;;;;;11.00;83.42;100900.72;4976405;28;46318;-81
2023/12/28 03:41:58;;;;;;;;;6.67;6.67;;;;;10.93;83.42;100886.88;4980393;28;45335;-81
2023/12/28 03:44:24;;;;;;;;;6.67;5.00;;;;;10.95;83.22;100892.13;4976542;28;46269;-81
2023/12/28 03:46:50;;;;;;;;;6.25;6.25;;;;;10.88;83.00;100885.41;4976342;28;45424;-83
2023/12/28 03:49:19;;;;;;;;;8.00;4.00;;;;;10.94;83.42;100898.41;4977178;28;45443;-84
2023/12/28 03:51:45;;;;;;;;;5.00;5.00;;;;;10.91;83.35;100883.44;4976960;28;45289;-82
2023/12/28 03:54:11;;;;;;;;;5.67;5.33;;;;;10.90;83.44;100900.34;4979196;28;46277;-81
2023/12/28 03:56:39;;;;;;;;;6.50;6.50;;;;;10.88;82.89;100896.03;4982003;28;45341;-86
2023/12/28 03:59:05;;;;;;;;;6.25;5.00;;;;;10.86;84.23;100889.94;4980414;28;45375;-84
2023/12/28 04:01:31;;;;;;;;;7.50;4.75;;;;;10.78;83.91;100881.50;4979594;28;45398;-89
2023/12/28 04:03:56;;;;;;;;;4.00;4.00;;;;;10.77;83.20;100877.13;4979771;28;45984;-89
2023/12/28 04:06:21;;;;;;;;;8.25;7.00;;;;;10.82;84.29;100872.44;4976015;28;63898;-89
2023/12/28 04:08:46;;;;;;;;;9.00;6.25;;;;;10.80;84.31;100880.47;4976182;28;45238;-89
2023/12/28 04:11:12;;;;;;;;;5.50;5.50;;;;;10.80;83.69;100895.56;4975923;28;47470;-84
2023/12/28 04:13:37;;;;;;;;;4.75;4.00;;;;;10.76;84.31;100888.69;4976510;28;45227;-82
2023/12/28 04:16:02;;;;;;;;;5.00;4.67;;;;;10.73;83.80;100883.53;4980385;28;46619;-80
2023/12/28 04:18:28;;;;;;;;;7.00;4.00;;;;;10.76;83.66;100894.88;4976027;28;45317;-82
2023/12/28 04:20:54;;;;;;;;;4.67;4.67;;;;;10.73;83.92;100891.53;4975659;28;45245;-83
2023/12/28 04:23:19;;;;;;;;;5.00;5.00;;;;;10.70;83.70;100870.41;4975234;28;45565;-82
2023/12/28 04:25:44;;;;;;;;;5.00;5.00;;;;;10.70;83.37;100884.56;4974877;28;59990;-82
2023/12/28 04:28:10;;;;;;;;;5.00;4.00;;;;;10.71;84.25;100885.44;4975554;28;45306;-83
2023/12/28 04:30:35;;;;;;;;;4.00;4.00;;;;;10.64;83.77;100875.09;4975410;28;45339;-82
2023/12/28 04:33:01;;;;;;;;;7.75;6.00;;;;;10.68;84.53;100874.94;4975417;28;56143;-82
2023/12/28 04:35:27;;;;;;;;;8.00;4.75;;;;;10.68;83.63;100896.19;4976576;28;45515;-82
2023/12/28 04:37:52;;;;;;;;;3.00;3.00;;;;;10.67;84.07;100890.03;4976466;28;45448;-87
2023/12/28 04:40:17;;;;;;;;;4.75;3.75;;;;;10.69;84.47;100892.63;4978958;28;45606;-82
2023/12/28 04:42:43;;;;;;;;;5.00;3.50;;;;;10.64;84.42;100888.38;4979563;28;45498;-81
2023/12/28 04:45:10;;;;;;;;;2.67;2.67;;;;;10.63;84.02;100884.00;4976704;28;45351;-81
2023/12/28 04:47:35;;;;;;;;;6.00;4.00;;;;;10.62;83.79;100881.44;4975635;28;45423;-82
2023/12/28 04:50:01;;;;;;;;;4.00;4.00;;;;;10.66;83.87;100883.00;4975479;28;45406;-83
2023/12/28 04:52:27;;;;;;;;;6.67;5.00;;;;;10.63;84.41;100878.69;4975264;28;45960;-81
2023/12/28 04:54:52;;;;;;;;;3.00;3.00;;;;;10.63;84.03;100875.19;4974914;28;57504;-84
2023/12/28 04:57:17;;;;;;;;;5.67;4.00;;;;;10.66;84.22;100876.81;4975308;28;46182;-86
2023/12/28 04:59:43;;;;;;;;;7.00;7.00;;;;;10.61;83.96;100864.63;4974838;28;49598;-80
2023/12/28 05:02:08;;;;;;;;;2.67;2.33;;;;;10.62;84.00;100869.00;4975072;28;45285;-80
2023/12/28 05:04:38;;;;;;;;;4.00;4.00;;;;;10.60;84.02;100873.53;4975139;28;51763;-81
2023/12/28 05:07:03;;;;;;;;;4.67;4.00;;;;;10.64;84.23;100869.78;4975821;28;45315;-81
2023/12/28 05:09:28;;;;;;;;;3.33;2.00;;;;;10.62;83.91;100874.31;4976730;28;53600;-80
2023/12/28 05:11:54;;;;;;;;;2.67;2.67;;;;;10.62;83.92;100871.66;4983151;28;59054;-82
2023/12/28 05:14:19;;;;;;;;;5.00;3.33;;;;;10.56;84.37;100866.66;4981831;28;60897;-80
2023/12/28 05:16:44;;;;;;;;;9.00;5.00;;;;;10.61;84.49;100885.91;4992136;28;45276;-82
2023/12/28 05:19:10;;;;;;;;;3.00;3.00;;;;;10.61;84.25;100885.03;4975947;28;57224;-83
2023/12/28 05:21:35;;;;;;;;;4.00;3.00;;;;;10.58;84.01;100885.19;4976451;28;45936;-81
2023/12/28 05:24:00;;;;;;;;;6.33;4.33;;;;;10.52;84.93;100877.53;4975277;28;45298;-85
2023/12/28 05:26:27;;;;;;;;;1.00;1.00;;;;;10.56;84.66;100882.63;4978804;28;47734;-82
2023/12/28 05:28:52;;;;;;;;;5.67;3.67;;;;;10.58;84.07;100880.75;4979815;28;46920;-83
2023/12/28 05:31:17;;;;;;;;;4.33;4.33;;;;;10.53;84.14;100877.44;4976139;28;45366;-82
2023/12/28 05:33:43;;;;;;;;;7.00;4.00;;;;;10.56;84.57;100893.25;4975100;28;45456;-85
2023/12/28 05:36:08;;;;;;;;;4.33;4.33;;;;;10.50;84.20;100890.91;4995955;28;45950;-83
2023/12/28 05:38:33;;;;;;;;;3.67;3.00;;;;;10.55;84.61;100890.69;4994649;28;45508;-84
2023/12/28 05:40:59;;;;;;;;;8.00;4.00;;;;;10.49;84.74;100891.84;4994138;28;45235;-85
2023/12/28 05:43:25;;;;;;;;;2.50;2.50;;;;;10.50;85.30;100895.34;4994211;28;45412;-88
2023/12/28 05:45:50;;;;;;;;;5.00;4.00;;;;;10.45;84.67;100884.97;4978555;28;45762;-83
2023/12/28 05:48:15;;;;;;;;;6.75;4.50;;;;;10.46;85.00;100897.31;4974214;28;57063;-86
2023/12/28 05:50:41;;;;;;;;;5.00;3.75;;;;;10.40;85.21;100896.75;4974869;28;69478;-86
2023/12/28 05:53:06;;;;;;;;;5.75;3.25;;;;;10.41;86.15;100896.69;4976518;28;45492;-88
2023/12/28 05:55:31;;;;;;;;;4.00;4.00;;;;;10.37;85.54;100895.13;4976123;28;45322;-85
2023/12/28 05:57:57;;;;;;;;;7.00;4.50;;;;;10.37;85.46;100895.13;4974143;28;51280;-81
2023/12/28 06:00:22;;;;;;;;;3.50;3.50;;;;;10.33;85.32;100901.53;4973617;28;46075;-84
2023/12/28 06:02:51;;;;;;;;;4.00;4.00;;;;;10.39;85.30;100911.84;4974127;28;45449;-89
2023/12/28 06:05:17;;;;;;;;;3.25;3.25;;;;;10.25;85.98;100893.94;4975622;28;45294;-86
2023/12/28 06:07:43;;;;;;;;;7.00;4.00;;;;;10.38;85.46;100909.28;4974994;28;46671;-80
2023/12/28 06:10:09;;;;;;;;;3.33;3.00;;;;;10.39;85.46;100922.47;4974741;27;45259;-83
2023/12/28 06:12:34;;;;;;;;;4.67;3.33;;;;;10.39;85.45;100911.00;4974250;28;45407;-85
2023/12/28 06:14:59;;;;;;;;;2.00;2.00;;;;;10.33;86.57;100915.69;4974231;28;45868;-85
2023/12/28 06:17:25;;;;;;;;;3.67;3.00;;;;;10.37;85.57;100918.19;4974199;28;45365;-83
2023/12/28 06:19:50;;;;;;;;;2.50;2.50;;;;;10.38;86.38;100925.22;4975396;28;46068;-87
2023/12/28 06:22:15;;;;;;;;;9.00;4.00;;;;;10.31;85.50;100904.28;4978324;28;45285;-88
2023/12/28 06:24:41;;;;;;;;;4.00;2.25;;;;;10.37;86.05;100911.06;4981389;28;50346;-85
2023/12/28 06:27:06;;;;;;;;;4.75;3.50;;;;;10.36;85.74;100909.34;4985578;28;45307;-80
2023/12/28 06:29:32;;;;;;;;;6.00;4.00;;;;;10.29;85.11;100898.19;4994436;28;45569;-82
2023/12/28 06:31:57;;;;;;;;;3.50;3.50;;;;;10.32;85.22;100899.81;5032471;27;45353;-82
2023/12/28 06:34:22;;;;;;;;;3.50;3.50;;;;;10.25;85.72;100896.59;5007591;27;45450;-84
2023/12/28 06:36:48;;;;;;;;;6.00;3.50;;;;;10.34;84.79;100908.56;5028176;28;54412;-84
2023/12/28 06:39:13;;;;;;;;;2.00;2.00;;;;;10.30;85.61;100915.00;5021342;27;46362;-83
2023/12/28 06:41:38;;;;;;;;;4.25;3.50;;;;;10.31;85.58;100916.72;5022953;27;45361;-83
2023/12/28 06:44:04;;;;;;;;;8.50;3.25;;;;;10.27;85.74;100918.63;4989471;28;45444;-83
2023/12/28 06:46:33;;;;;;;;;4.75;3.75;;;;;10.28;86.83;100924.81;4983264;28;45425;-83
2023/12/28 06:48:59;;;;;;;;;2.33;2.33;;;;;10.22;87.13;100923.34;5027092;27;45872;-84
2023/12/28 06:51:26;;;;;;;;;2.33;2.33;;;;;10.21;86.11;100918.06;5007046;27;45298;-86
2023/12/28 06:53:51;;;;;;;;;8.00;3.00;;;;;10.17;86.48;100908.53;4993522;28;45244;-87
2023/12/28 06:56:17;;;;;;;;;4.00;3.50;;;;;10.23;87.02;100927.72;5023201;28;45305;-80
2023/12/28 06:58:43;;;;;;;;;3.00;3.00;;;;;10.22;86.82;100933.97;5015208;28;47037;-81
2023/12/28 07:01:08;;;;;;;;;4.25;3.75;;;;;10.21;87.17;100939.31;5007574;28;45344;-87
2023/12/28 07:03:34;;;;;;;;;4.00;2.25;;;;;10.18;87.62;100929.72;5032977;27;45499;-84
2023/12/28 07:05:59;;;;;;;;;7.00;5.00;;;;;10.16;87.12;100933.38;4997034;28;45432;-86
2023/12/28 07:08:25;;;;;;;;;4.00;4.00;;;;;10.10;87.87;100938.97;4997955;27;45408;-91
2023/12/28 07:10:52;;;;;;;;;3.00;3.00;;;;;10.19;87.25;100951.84;5005493;27;45374;-84
2023/12/28 07:13:20;;;;;;;;;4.67;4.67;;;;;10.16;87.15;100954.66;4992172;27;45544;-83
2023/12/28 07:15:45;;;;;;;;;4.00;3.00;;;;;10.18;87.88;100958.09;5023976;27;45369;-83
2023/12/28 07:18:11;;;;;;;;;6.00;3.00;;;;;10.17;87.76;100954.56;4997333;28;45515;-88
2023/12/28 07:20:36;;;;;;;;;4.00;4.00;;;;;10.17;87.77;100956.38;5012581;28;45492;-88
2023/12/28 07:23:02;;;;;;;;;0.25;0.25;;;;;10.18;88.28;100955.44;5015535;27;45259;-82
2023/12/28 07:25:28;;;;;;;;;10.75;4.75;;;;;10.22;87.28;100955.22;4983096;28;45545;-88
2023/12/28 07:27:53;;;;;;;;;10.00;5.00;;;;;10.25;87.84;100959.53;5004004;27;54604;-85
2023/12/28 07:30:18;;;;;;;;;4.67;4.67;;;;;10.27;87.22;100952.34;5004269;28;58391;-86
2023/12/28 07:32:45;;;;;;;;;3.00;3.00;;;;;10.23;88.00;100945.44;4999665;28;45290;-86
2023/12/28 07:35:10;;;;;;;;;3.00;3.00;;;;;10.34;87.62;100965.25;5010322;28;44739;-86
2023/12/28 07:37:35;;;;;;;;;7.50;7.50;;;;;10.40;86.61;100958.78;5004111;28;45532;-86
2023/12/28 07:40:03;;;;;;;;;4.00;4.00;;;;;10.32;86.05;100945.88;5020961;27;58437;-87
2023/12/28 07:42:28;;;;;;;;;9.00;7.00;;;;;10.36;86.40;100943.06;5005058;28;45488;-87
2023/12/28 07:44:54;;;;;;;;;6.00;5.00;;;;;10.51;86.58;100964.41;5001479;28;45368;-84
2023/12/28 07:47:19;;;;;;;;;7.33;5.33;;;;;10.44;86.13;100952.38;5015202;27;46959;-85
2023/12/28 07:49:44;;;;;;;;;8.75;7.50;;;;;10.40;85.97;100950.78;4993523;27;45645;-87
2023/12/28 07:52:10;;;;;;;;;7.75;5.50;;;;;10.48;86.06;100969.03;4992651;28;45433;-87
2023/12/28 07:54:35;;;;;;;;;5.75;5.00;;;;;10.34;86.17;100951.09;4999299;27;45248;-88
2023/12/28 07:57:02;;;;;;;;;5.75;5.00;;;;;10.41;86.96;100956.97;4999015;27;46139;-86
2023/12/28 07:59:27;;;;;;;;;7.00;4.75;;;;;10.40;86.66;100961.44;4999857;28;45291;-86
2023/12/28 08:01:54;;;;;;;;;7.75;5.50;;;;;10.31;86.69;100948.59;4999380;28;47980;-83
2023/12/28 08:04:19;;;;;;;;;7.50;4.75;;;;;10.32;86.83;100953.00;5015188;28;45492;-86
2023/12/28 08:06:44;;;;;;;;;3.75;3.75;;;;;10.40;87.04;100972.06;5017036;28;45549;-92
2023/12/28 08:09:10;;;;;;;;;7.00;6.75;;;;;10.41;87.37;100979.09;5015965;28;45319;-84
2023/12/28 08:11:38;;;;;;;;;4.00;4.00;;;;;10.26;86.91;100948.81;5016603;28;45443;-91
2023/12/28 08:14:03;;;;;;;;;5.00;5.00;;;;;10.43;87.56;100987.03;5015095;28;45350;-87
2023/12/28 08:16:29;;;;;;;;;7.50;4.25;;;;;10.37;86.99;100974.88;5005473;27;45291;-87
2023/12/28 08:18:54;;;;;;;;;7.00;7.00;;;;;10.48;86.98;100991.16;4995484;28;45269;-84
2023/12/28 08:21:19;;;;;;;;;7.00;4.00;;;;;10.55;86.38;100983.75;4998901;28;48002;-85
2023/12/28 08:23:45;;;;;;;;;3.67;3.67;;;;;10.48;86.54;100969.03;4999077;28;48967;-83
2023/12/28 08:26:10;;;;;;;;;5.00;5.00;;;;;10.55;86.25;100976.66;4995530;28;45972;-83
2023/12/28 08:28:36;;;;;;;;;6.67;5.00;;;;;10.49;86.42;100974.28;4998183;28;45507;-85
2023/12/28 08:31:01;;;;;;;;;9.33;5.00;;;;;10.60;85.86;100995.88;4993202;28;45402;-83
2023/12/28 08:33:26;;;;;;;;;5.00;5.00;;;;;10.63;85.74;100997.53;4994467;28;45495;-85
2023/12/28 08:35:52;;;;;;;;;5.00;3.50;;;;;10.55;85.77;100971.31;5005108;27;46020;-84
2023/12/28 08:38:17;;;;;;;;;4.50;2.75;;;;;10.69;85.77;100991.91;4992933;27;50375;-84
2023/12/28 08:40:44;;;;;;;;;6.67;4.00;;;;;10.69;85.75;100988.41;4995044;27;45344;-84
2023/12/28 08:43:09;;;;;;;;;6.67;4.00;;;;;10.72;85.79;100985.56;4993622;28;45452;-83
2023/12/28 08:45:35;;;;;;;;;7.50;3.75;;;;;10.78;84.99;100998.56;4989054;28;45546;-84
2023/12/28 08:48:01;;;;;;;;;3.67;3.67;;;;;10.75;84.87;100999.56;4994751;28;45509;-83
2023/12/28 08:50:26;;;;;;;;;2.50;2.50;;;;;10.76;85.00;101005.75;4994591;27;45449;-84
2023/12/28 08:52:51;;;;;;;;;3.33;3.33;;;;;10.72;85.26;100993.56;4994889;28;45346;-86
2023/12/28 08:55:16;;;;;;;;;3.25;3.00;;;;;10.75;84.77;100993.38;4994424;27;46109;-85
2023/12/28 08:57:42;;;;;;;;;4.33;4.00;;;;;10.84;84.37;101007.09;4994919;28;64617;-87
2023/12/28 09:00:07;;;;;;;;;3.67;3.67;;;;;10.88;84.34;101007.81;4995822;27;45445;-85
2023/12/28 09:02:33;;;;;;;;;4.00;4.00;;;;;10.94;84.28;101002.19;4998023;27;45520;-88
2023/12/28 09:04:59;;;;;;;;;3.00;3.00;;;;;11.01;84.30;101006.22;5014727;28;45348;-84
2023/12/28 09:07:28;;;;;;;;;3.00;3.00;;;;;10.99;83.72;100997.47;5005050;27;45330;-82
2023/12/28 09:09:54;;;;;;;;;7.00;2.00;;;;;11.19;82.94;101013.25;5010151;27;45461;-83
2023/12/28 09:12:20;;;;;;;;;3.00;3.00;;;;;11.20;82.80;100996.38;5029679;27;45734;-84
2023/12/28 09:14:46;;;;;;;;;4.33;3.00;;;;;11.33;81.98;101011.69;5019386;27;46659;-86
2023/12/28 09:17:11;;;;;;;;;2.00;2.00;;;;;11.43;81.86;101012.91;5030807;28;45405;-84
2023/12/28 09:19:37;;;;;;;;;3.00;3.00;;;;;11.48;80.99;101021.56;5018573;28;45288;-87
2023/12/28 09:22:03;;;;;;;;;5.33;4.00;;;;;11.50;81.36;101017.00;5028611;27;45348;-89
2023/12/28 09:24:29;;;;;;;;;4.00;3.00;;;;;11.58;80.57;101021.91;5001430;28;45417;-89
2023/12/28 09:26:54;;;;;;;;;2.00;2.00;;;;;11.60;80.64;101004.06;5000084;28;45338;-85
2023/12/28 09:29:19;;;;;;;;;7.67;2.67;;;;;11.68;79.81;101017.81;4997243;28;49939;-82
2023/12/28 09:31:46;;;;;;;;;6.33;4.00;;;;;11.69;79.85;101017.72;4998014;28;45453;-81
2023/12/28 09:34:11;;;;;;;;;3.00;3.00;;;;;11.67;79.38;101016.94;5000872;28;45425;-79
2023/12/28 09:36:37;;;;;;;;;3.00;1.67;;;;;11.73;79.32;101016.63;4999006;28;62126;-81
2023/12/28 09:39:03;;;;;;;;;5.00;3.00;;;;;11.75;79.08;101024.53;5009505;28;45277;-84
2023/12/28 09:41:33;;;;;;;;;3.67;2.67;;;;;11.77;79.26;101035.97;4998808;28;45439;-84
2023/12/28 09:44:10;;;;;;;;;3.33;3.00;;;;;11.82;78.89;101026.81;4994303;28;45440;-85
2023/12/28 09:46:36;;;;;;;;;3.33;3.33;;;;;11.85;78.65;101027.56;5001750;28;45303;-87
2023/12/28 09:49:03;;;;;;;;;5.00;4.00;;;;;11.95;78.36;101036.78;5010239;28;45263;-83
2023/12/28 09:51:29;;;;;;;;;5.00;3.00;;;;;11.98;77.82;101036.63;4979197;28;45463;-83
2023/12/28 09:53:56;;;;;;;;;3.00;3.00;;;;;11.94;78.35;101043.94;4987561;28;45404;-83
2023/12/28 09:56:24;;;;;;;;;4.33;3.00;;;;;11.97;78.34;101042.91;5013482;28;45345;-82
2023/12/28 09:58:51;;;;;;;;;4.00;4.00;;;;;11.99;78.05;101033.91;5005851;28;45246;-84
2023/12/28 10:01:17;;;;;;;;;3.33;3.33;;;;;11.87;78.31;101023.91;5011428;28;45536;-80
2023/12/28 10:03:43;;;;;;;;;4.00;4.00;;;;;11.86;78.58;101027.53;4996338;28;45271;-84
2023/12/28 10:06:09;;;;;;;;;10.67;5.00;;;;;11.78;78.44;101019.91;4996773;28;45821;-81
2023/12/28 10:08:35;;;;;;;;;5.00;3.00;;;;;11.79;78.16;101024.31;4995464;28;45404;-81
2023/12/28 10:11:02;;;;;;;;;3.00;3.00;;;;;11.88;78.06;101024.78;5000265;28;45522;-79
2023/12/28 10:13:27;;;;;;;;;6.00;3.00;;;;;12.01;77.70;101018.69;4995166;27;48160;-86
2023/12/28 10:15:57;;;;;;;;;4.00;4.00;;;;;12.13;77.61;101014.47;4994714;27;45514;-81
2023/12/28 10:18:23;;;;;;;;;4.00;4.00;;;;;12.26;77.13;101020.84;4996888;27;45421;-82
2023/12/28 10:21:09;;;;;;;;;4.00;2.67;;;;;12.33;76.49;101003.53;4998967;28;45317;-80
2023/12/28 10:23:37;;;;;;;;;4.00;3.33;;;;;12.48;75.46;101007.13;4977191;28;46518;-84
2023/12/28 10:26:04;;;;;;;;;3.67;3.67;;;;;12.49;74.99;101005.31;4973236;28;45395;-87
2023/12/28 10:28:34;;;;;;;;;6.33;3.00;;;;;12.49;74.89;100999.97;5004758;28;45455;-88
2023/12/28 10:31:01;;;;;;;;;5.67;4.00;;;;;12.56;74.69;101006.69;5059757;27;45528;-88
2023/12/28 10:33:26;;;;;;;;;3.33;3.33;;;;;12.65;74.67;101000.84;5027447;28;47224;-84
2023/12/28 10:35:53;;;;;;;;;5.00;4.00;;;;;12.83;73.55;100993.56;4997230;27;45449;-88
2023/12/28 10:38:19;;;;;;;;;5.00;4.00;;;;;12.76;72.46;100965.50;4983028;28;45407;-88
2023/12/28 10:40:46;;;;;;;;;6.33;5.33;;;;;12.84;71.89;100971.25;4996255;28;45306;-87
2023/12/28 10:43:15;;;;;;;;;4.00;4.00;;;;;12.91;70.95;100965.47;5033389;28;46434;-88
2023/12/28 10:45:46;;;;;;;;;4.33;4.33;;;;;12.90;71.41;100960.22;5077552;28;45439;-86
2023/12/28 10:48:13;;;;;;;;;6.67;3.33;;;;;13.23;70.64;101008.94;5058985;28;45188;-89
2023/12/28 10:50:46;;;;;;;;;4.33;4.33;;;;;13.18;71.01;100999.47;5074528;28;45540;-87
2023/12/28 10:53:31;;;;;;;;;4.00;4.00;;;;;13.12;70.40;100999.81;5030764;27;47543;-89
2023/12/28 10:56:15;;;;;;;;;4.00;2.67;;;;;13.05;70.91;101001.16;5002664;28;44704;-88
2023/12/28 10:58:49;;;;;;;;;5.00;4.00;;;;;12.99;70.85;100989.88;4998688;27;45305;-88
2023/12/28 11:01:23;;;;;;;;;6.33;5.00;;;;;13.03;71.13;100993.25;5025897;27;45383;-88
2023/12/28 11:04:03;;;;;;;;;6.00;3.00;;;;;12.96;70.67;100989.22;5098265;27;46216;-87
2023/12/28 11:06:30;;;;;;;;;3.33;3.33;;;;;12.97;70.59;100983.78;4977623;28;45542;-88
2023/12/28 11:08:59;;;;;;;;;5.00;5.00;;;;;13.21;70.31;100977.94;4977323;28;45458;-86
2023/12/28 11:11:26;;;;;;;;;5.33;5.00;;;;;13.31;69.05;100935.50;4990973;28;45521;-86
2023/12/28 11:13:54;;;;;;;;;3.33;3.00;;;;;13.52;68.76;100943.03;4997720;28;45518;-83
2023/12/28 11:16:20;;;;;;;;;4.00;1.33;;;;;13.64;67.83;100927.19;4996575;28;45377;-84
2023/12/28 11:18:47;;;;;;;;;7.00;4.67;;;;;13.90;67.31;100958.44;5004749;28;45340;-87